الصفحة الرئيسية
METAR-TAF:

METAR-TAF

مطار :

مطار الأمير سعيد إبراهيم الدولي

موروني, جزر القمر

دائرة عرض: 11-32S, خط طول: 043-16E, ارتفاع: 29 متر

METAR: مفقودة

زمن: 02:12 (23:12 UTC)

توقعات

تاريخ ووقت الإصدار 6ساعات و 12 دقيقة قبل الساعة 17:00UTC
التوقعات صالحة من17 الساعة 18 UTC إلى 18 الساعة 24 UTC
ريح 5 عقدة من الشرق/الجنوب الشرقي
الرؤية 10 كم أو أكثر
غيوم قليلة على ارتفاع 2000 قدم
غيوم متفرقة على ارتفاع 3000 قدم
أصبح
من 18 الساعة 04 UTC إلى 18 الساعة 07 UTC
ريح 15 عقدة من الجنوب/الجنوب الغربي
أصبح
من 18 الساعة 15 UTC إلى 18 الساعة 18 UTC
ريح 5 عقدة من الشرق/الجنوب الشرقي

TAF: FMCH 171700Z 1718/1824 12005KT 9999 FEW020 SCT030 BECMG 1804/1807 20015KT BECMG 1815/1818 12005KT

أرصاد الطقس والتوقعات من أكثر من 4000 مطار (تقارير الطقس للمطار METAR والتنبؤ بالطقس بالمطارTAF).

المحطات المتاحة هي النقط الصفراء والحمراء على الخريطة.

حرك المؤشر فوق النقطة لمعرفة اسم المحطة.

ثم انقر لمعرفة أرصاد وتوقعات الطقس.

لتغيير الخارطة: اضغط على الأزرار الخضراء مع رمز الصليب الأسود للتكبير. على الزر الأخضر مع شرطة للتصغير، أو على الأسهم الخضراء للخرائط المجاورة.


METAR-TAF: